createdAt,value
2018-01-15T00:01:51.873Z,-0.70
2018-01-15T00:04:19.393Z,-0.80
2018-01-15T00:06:46.894Z,-0.80
2018-01-15T00:09:14.421Z,-0.70
2018-01-15T00:11:41.939Z,-0.80
2018-01-15T00:14:09.472Z,-0.70
2018-01-15T00:16:37.771Z,-0.60
2018-01-15T00:19:05.291Z,-0.70
2018-01-15T00:21:32.850Z,-0.60
2018-01-15T00:24:00.382Z,-0.60
2018-01-15T00:26:27.893Z,-0.70
2018-01-15T00:28:56.195Z,-0.60
2018-01-15T00:31:23.682Z,-0.70
2018-01-15T00:33:51.179Z,-0.60
2018-01-15T00:36:18.704Z,-0.60
2018-01-15T00:38:46.222Z,-0.60
2018-01-15T00:41:13.709Z,-0.60
2018-01-15T00:43:41.233Z,-0.60
2018-01-15T00:46:08.751Z,-0.60
2018-01-15T00:48:36.245Z,-0.60
2018-01-15T00:51:03.786Z,-0.50
2018-01-15T00:53:31.276Z,-0.50
2018-01-15T00:55:58.801Z,-0.50
2018-01-15T00:58:26.286Z,-0.60
2018-01-15T01:00:53.779Z,-0.60
2018-01-15T01:03:21.298Z,-0.60
2018-01-15T01:05:48.822Z,-0.60
2018-01-15T01:08:17.127Z,-0.60
2018-01-15T01:10:44.625Z,-0.60
2018-01-15T01:13:12.117Z,-0.60
2018-01-15T01:15:39.633Z,-0.60
2018-01-15T01:18:07.129Z,-0.70
2018-01-15T01:20:34.648Z,-0.70
2018-01-15T01:23:02.142Z,-0.70
2018-01-15T01:25:29.662Z,-0.70
2018-01-15T01:27:57.170Z,-0.80
2018-01-15T01:30:24.700Z,-0.70
2018-01-15T01:32:52.197Z,-0.80
2018-01-15T01:35:19.729Z,-0.80
2018-01-15T01:37:47.247Z,-0.80
2018-01-15T01:40:14.738Z,-0.80
2018-01-15T01:42:43.032Z,-0.90
2018-01-15T01:45:10.532Z,-0.90
2018-01-15T01:47:38.022Z,-0.90
2018-01-15T01:50:05.703Z,-0.90
2018-01-15T01:52:34.021Z,-0.90
2018-01-15T01:55:02.230Z,-0.90
2018-01-15T01:57:29.769Z,-0.90
2018-01-15T01:59:57.293Z,-0.90
2018-01-15T02:02:25.577Z,-1.00
2018-01-15T02:04:53.835Z,-1.00
2018-01-15T02:07:21.355Z,-1.00
2018-01-15T02:09:48.848Z,-1.00
2018-01-15T02:12:16.375Z,-1.00
2018-01-15T02:14:43.867Z,-1.10
2018-01-15T02:17:11.378Z,-1.10
2018-01-15T02:19:39.638Z,-1.10
2018-01-15T02:22:07.161Z,-1.10
2018-01-15T02:24:34.655Z,-1.10
2018-01-15T02:27:02.170Z,-1.10
2018-01-15T02:29:29.666Z,-1.10
2018-01-15T02:31:57.198Z,-1.10
2018-01-15T02:34:24.685Z,-1.10
2018-01-15T02:36:52.170Z,-1.10
2018-01-15T02:39:19.686Z,-1.20
2018-01-15T02:41:47.188Z,-1.10
2018-01-15T02:44:14.713Z,-1.10
2018-01-15T02:46:42.202Z,-1.10
2018-01-15T02:49:09.724Z,-1.10
2018-01-15T02:51:37.227Z,-1.10
2018-01-15T02:54:04.749Z,-1.10
2018-01-15T02:56:32.254Z,-1.10
2018-01-15T02:58:59.784Z,-1.20
2018-01-15T03:01:27.416Z,-1.20
2018-01-15T03:03:54.908Z,-1.20
2018-01-15T03:06:22.437Z,-1.20
2018-01-15T03:08:49.943Z,-1.20
2018-01-15T03:11:17.466Z,-1.20
2018-01-15T03:13:44.954Z,-1.20
2018-01-15T03:16:13.253Z,-1.20
2018-01-15T03:18:40.775Z,-1.20
2018-01-15T03:21:08.270Z,-1.20
2018-01-15T03:23:35.798Z,-1.10
2018-01-15T03:26:03.286Z,-1.20
2018-01-15T03:28:31.585Z,-1.10
2018-01-15T03:30:59.123Z,-1.10
2018-01-15T03:33:27.442Z,-1.10
2018-01-15T03:35:54.925Z,-1.10
2018-01-15T03:38:22.422Z,-1.10
2018-01-15T03:40:49.946Z,-1.10
2018-01-15T03:43:17.439Z,-1.10
2018-01-15T03:45:44.986Z,-1.10
2018-01-15T03:48:12.486Z,-1.10
2018-01-15T03:50:40.787Z,-1.00
2018-01-15T03:53:08.286Z,-1.00
2018-01-15T03:55:35.800Z,-0.90
2018-01-15T03:58:04.105Z,-0.90
2018-01-15T04:00:31.650Z,-0.90
2018-01-15T04:02:59.143Z,-0.90
2018-01-15T04:05:26.682Z,-0.90
2018-01-15T04:07:54.344Z,-0.80
2018-01-15T04:10:21.852Z,-0.90
2018-01-15T04:12:50.137Z,-0.90
2018-01-15T04:15:17.665Z,-0.90
2018-01-15T04:17:45.194Z,-0.90
2018-01-15T04:20:12.773Z,-0.90
2018-01-15T04:22:41.033Z,-0.90
2018-01-15T04:25:08.525Z,-0.90
2018-01-15T04:27:36.058Z,-0.80
2018-01-15T04:30:03.575Z,-0.80
2018-01-15T04:32:31.066Z,-0.80
2018-01-15T04:34:58.603Z,-0.80
2018-01-15T04:37:26.134Z,-0.70
2018-01-15T04:39:54.433Z,-0.60
2018-01-15T04:42:21.970Z,-0.60
2018-01-15T04:44:50.259Z,-0.50
2018-01-15T04:47:18.664Z,-0.50
2018-01-15T04:49:46.238Z,-0.60
2018-01-15T04:52:13.742Z,-0.40
2018-01-15T04:54:41.234Z,-0.30
2018-01-15T04:57:09.534Z,-0.20
2018-01-15T04:59:37.070Z,-0.30
2018-01-15T05:02:05.362Z,-0.10
2018-01-15T05:04:33.664Z,-0.10
2018-01-15T05:07:01.156Z,-0.10
2018-01-15T05:09:28.688Z,-0.10
2018-01-15T05:11:56.188Z,-0.10
2018-01-15T05:14:23.686Z,-0.10
2018-01-15T05:16:51.973Z,0.00
2018-01-15T05:19:20.230Z,0.10
2018-01-15T05:21:47.749Z,0.10
2018-01-15T05:24:15.279Z,0.10
2018-01-15T05:26:43.570Z,0.20
2018-01-15T05:29:11.113Z,0.30
2018-01-15T05:31:38.589Z,0.30
2018-01-15T05:34:06.859Z,0.40
2018-01-15T05:36:34.381Z,0.40
2018-01-15T05:39:01.870Z,0.50
2018-01-15T05:41:29.359Z,0.70
2018-01-15T05:43:57.650Z,0.80
2018-01-15T05:46:25.187Z,0.80
2018-01-15T05:48:52.716Z,0.80
2018-01-15T05:51:20.207Z,0.90
2018-01-15T05:53:47.742Z,1.00
2018-01-15T05:56:15.261Z,1.00
2018-01-15T05:58:43.557Z,1.00
2018-01-15T06:01:11.042Z,1.00
2018-01-15T06:03:38.568Z,1.10
2018-01-15T06:06:06.853Z,1.10
2018-01-15T06:08:34.396Z,1.10
2018-01-15T06:11:01.891Z,1.10
2018-01-15T06:13:29.410Z,1.00
2018-01-15T06:15:56.933Z,1.00
2018-01-15T06:18:24.460Z,1.10
2018-01-15T06:20:52.724Z,1.10
2018-01-15T06:23:21.518Z,1.10
2018-01-15T06:25:49.049Z,1.20
2018-01-15T06:28:16.580Z,1.10
2018-01-15T06:30:44.514Z,1.20
2018-01-15T06:33:12.066Z,1.20
2018-01-15T06:35:39.591Z,1.10
2018-01-15T06:38:09.017Z,1.10
2018-01-15T06:40:36.509Z,1.00
2018-01-15T06:43:03.993Z,1.10
2018-01-15T06:45:32.273Z,1.40
2018-01-15T06:48:00.583Z,1.50
2018-01-15T06:50:28.109Z,1.60
2018-01-15T06:52:55.631Z,1.70
2018-01-15T06:55:23.122Z,1.50
2018-01-15T06:57:50.637Z,1.40
2018-01-15T07:00:18.185Z,1.50
2018-01-15T07:02:46.465Z,1.80
2018-01-15T07:05:14.717Z,1.80
2018-01-15T07:07:42.253Z,1.80
2018-01-15T07:10:09.738Z,1.90
2018-01-15T07:12:37.233Z,2.00
2018-01-15T07:15:05.517Z,2.20
2018-01-15T07:17:33.786Z,2.20
2018-01-15T07:20:02.087Z,2.20
2018-01-15T07:22:29.574Z,2.20
2018-01-15T07:24:57.054Z,2.20
2018-01-15T07:27:24.579Z,2.20
2018-01-15T07:29:52.078Z,1.90
2018-01-15T07:32:19.605Z,1.80
2018-01-15T07:34:47.128Z,1.70
2018-01-15T07:37:14.650Z,1.70
2018-01-15T07:39:42.146Z,1.70
2018-01-15T07:42:09.680Z,1.70
2018-01-15T07:44:37.183Z,1.60
2018-01-15T07:47:04.667Z,1.60
2018-01-15T07:49:32.966Z,1.40
2018-01-15T07:52:00.465Z,1.40
2018-01-15T07:54:28.006Z,1.40
2018-01-15T07:56:55.500Z,1.40
2018-01-15T07:59:22.987Z,1.40
2018-01-15T08:01:50.518Z,1.40
2018-01-15T08:04:18.007Z,1.50
2018-01-15T08:06:45.506Z,1.50
2018-01-15T08:09:13.071Z,1.60
2018-01-15T08:11:40.573Z,1.80
2018-01-15T08:14:08.064Z,2.00
2018-01-15T08:16:35.577Z,2.40
2018-01-15T08:19:03.077Z,2.60
2018-01-15T08:21:30.601Z,2.70
2018-01-15T08:23:58.096Z,2.80
2018-01-15T08:26:25.607Z,2.70
2018-01-15T08:28:54.076Z,3.00
2018-01-15T08:31:21.557Z,3.00
2018-01-15T08:33:49.854Z,3.40
2018-01-15T08:36:17.378Z,3.40
2018-01-15T08:38:45.652Z,3.50
2018-01-15T08:41:13.170Z,3.50
2018-01-15T08:43:40.709Z,3.60
2018-01-15T08:46:08.961Z,3.80
2018-01-15T08:48:36.498Z,3.80
2018-01-15T08:51:04.006Z,3.90
2018-01-15T08:53:32.258Z,4.00
2018-01-15T08:55:59.762Z,4.00
2018-01-15T08:58:27.283Z,4.00
2018-01-15T09:00:54.819Z,4.10
2018-01-15T09:03:22.310Z,4.20
2018-01-15T09:05:49.823Z,4.00
2018-01-15T09:08:17.311Z,3.90
2018-01-15T09:10:44.836Z,3.80
2018-01-15T09:13:13.079Z,3.70
2018-01-15T09:15:40.707Z,3.70
2018-01-15T09:18:08.233Z,3.80
2018-01-15T09:20:36.526Z,4.50
2018-01-15T09:23:04.020Z,4.50
2018-01-15T09:25:31.506Z,5.00
2018-01-15T09:27:59.037Z,5.70
2018-01-15T09:30:26.534Z,6.60
2018-01-15T09:32:54.020Z,7.50
2018-01-15T09:35:21.534Z,8.10
2018-01-15T09:37:49.096Z,8.60
2018-01-15T09:40:16.569Z,9.30
2018-01-15T09:42:44.090Z,9.90
2018-01-15T09:45:12.338Z,10.30
2018-01-15T09:47:39.887Z,10.30
2018-01-15T09:50:07.390Z,9.60
2018-01-15T09:52:35.637Z,9.00
2018-01-15T09:55:03.176Z,9.00
2018-01-15T09:57:30.669Z,8.20
2018-01-15T09:59:58.203Z,7.80
2018-01-15T10:02:25.683Z,7.80
2018-01-15T10:04:53.173Z,7.10
2018-01-15T10:07:20.674Z,6.90
2018-01-15T10:09:48.173Z,6.40
2018-01-15T10:12:15.689Z,7.10
2018-01-15T10:14:43.937Z,7.50
2018-01-15T10:17:11.465Z,7.50
2018-01-15T10:19:39.092Z,7.30
2018-01-15T10:22:07.380Z,6.20
2018-01-15T10:24:35.630Z,6.20
2018-01-15T10:27:03.130Z,6.20
2018-01-15T10:29:30.642Z,6.50
2018-01-15T10:31:58.122Z,6.00
2018-01-15T10:34:25.661Z,5.60
2018-01-15T10:36:53.149Z,5.90
2018-01-15T10:39:20.638Z,6.00
2018-01-15T10:41:48.918Z,6.40
2018-01-15T10:44:17.177Z,6.80
2018-01-15T10:46:44.738Z,6.80
2018-01-15T10:49:12.252Z,6.80
2018-01-15T10:51:39.770Z,7.00
2018-01-15T10:54:07.280Z,6.50
2018-01-15T10:56:34.775Z,6.40
2018-01-15T10:59:02.311Z,6.10
2018-01-15T11:01:29.795Z,5.80
2018-01-15T11:03:57.276Z,5.60
2018-01-15T11:06:24.806Z,5.50
2018-01-15T11:08:52.302Z,5.40
2018-01-15T11:11:19.822Z,5.70
2018-01-15T11:13:47.311Z,5.70
2018-01-15T11:16:14.854Z,5.80
2018-01-15T11:18:42.375Z,5.70
2018-01-15T11:21:09.884Z,5.60
2018-01-15T11:23:37.375Z,5.70
2018-01-15T11:26:04.935Z,5.70
2018-01-15T11:28:32.419Z,5.70
2018-01-15T11:30:59.902Z,5.60
2018-01-15T11:33:28.150Z,5.60
2018-01-15T11:35:55.693Z,5.60
2018-01-15T11:38:23.178Z,5.70
2018-01-15T11:40:50.689Z,5.80
2018-01-15T11:43:18.194Z,5.90
2018-01-15T11:45:45.727Z,6.00
2018-01-15T11:48:13.245Z,6.00
2018-01-15T11:50:40.721Z,6.10
2018-01-15T11:53:09.009Z,6.20
2018-01-15T11:55:36.539Z,6.20
2018-01-15T11:58:04.026Z,6.20
2018-01-15T12:00:32.309Z,6.00
2018-01-15T12:03:00.578Z,6.00
2018-01-15T12:05:28.091Z,6.00
2018-01-15T12:07:55.601Z,5.90
2018-01-15T12:10:23.157Z,5.90
2018-01-15T12:12:50.677Z,5.80
2018-01-15T12:15:18.198Z,5.80
2018-01-15T12:17:46.473Z,5.90
2018-01-15T12:20:13.964Z,5.90
2018-01-15T12:22:41.482Z,6.20
2018-01-15T12:25:08.974Z,6.30
2018-01-15T12:27:37.263Z,6.40
2018-01-15T12:30:05.516Z,6.60
2018-01-15T12:32:33.043Z,6.60
2018-01-15T12:35:00.558Z,6.60
2018-01-15T12:37:29.097Z,6.80
2018-01-15T12:39:56.583Z,7.10
2018-01-15T12:42:24.101Z,7.10
2018-01-15T12:44:51.581Z,7.40
2018-01-15T12:47:19.110Z,7.40
2018-01-15T12:49:47.361Z,7.30
2018-01-15T12:52:14.851Z,7.30
2018-01-15T12:54:43.141Z,7.40
2018-01-15T12:57:10.666Z,7.40
2018-01-15T12:59:38.193Z,7.30
2018-01-15T13:02:05.688Z,7.00
2018-01-15T13:04:33.214Z,7.20
2018-01-15T13:07:00.744Z,7.10
2018-01-15T13:09:28.997Z,7.10
2018-01-15T13:11:56.490Z,7.10
2018-01-15T13:14:24.782Z,7.00
2018-01-15T13:16:52.272Z,7.00
2018-01-15T13:19:19.806Z,7.30
2018-01-15T13:21:47.285Z,7.40
2018-01-15T13:24:14.802Z,7.40
2018-01-15T13:26:42.318Z,7.40
2018-01-15T13:29:09.814Z,7.50
2018-01-15T13:31:37.330Z,7.80
2018-01-15T13:34:04.812Z,7.80
2018-01-15T13:36:32.335Z,7.70
2018-01-15T13:39:00.605Z,7.20
2018-01-15T13:41:28.132Z,7.20
2018-01-15T13:43:55.665Z,6.70
2018-01-15T13:46:23.186Z,6.60
2018-01-15T13:48:50.669Z,6.60
2018-01-15T13:51:18.956Z,6.60
2018-01-15T13:53:47.208Z,6.60
2018-01-15T13:56:14.724Z,6.50
2018-01-15T13:58:42.213Z,6.50
2018-01-15T14:01:09.730Z,6.50
2018-01-15T14:03:37.262Z,6.40
2018-01-15T14:06:04.779Z,6.30
2018-01-15T14:08:32.295Z,6.30
2018-01-15T14:10:59.833Z,6.30
2018-01-15T14:13:27.321Z,6.50
2018-01-15T14:15:54.810Z,6.50
2018-01-15T14:18:22.348Z,6.50
2018-01-15T14:20:49.842Z,6.40
2018-01-15T14:23:17.337Z,6.30
2018-01-15T14:25:44.853Z,6.30
2018-01-15T14:28:13.114Z,6.10
2018-01-15T14:30:40.625Z,6.10
2018-01-15T14:33:08.156Z,6.20
2018-01-15T14:35:36.402Z,6.30
2018-01-15T14:38:03.926Z,6.20
2018-01-15T14:40:31.456Z,6.30
2018-01-15T14:42:58.953Z,6.40
2018-01-15T14:45:26.441Z,6.50
2018-01-15T14:47:53.957Z,6.70
2018-01-15T14:50:22.250Z,6.70
2018-01-15T14:52:49.734Z,6.70
2018-01-15T14:55:17.225Z,6.80
2018-01-15T14:57:44.756Z,6.80
2018-01-15T15:00:12.286Z,6.80
2018-01-15T15:02:40.540Z,6.70
2018-01-15T15:05:08.046Z,6.60
2018-01-15T15:07:35.537Z,6.50
2018-01-15T15:10:03.058Z,6.50
2018-01-15T15:12:31.310Z,6.30
2018-01-15T15:14:58.855Z,6.20
2018-01-15T15:17:26.349Z,6.20
2018-01-15T15:19:53.893Z,6.20
2018-01-15T15:22:21.374Z,6.10
2018-01-15T15:24:48.895Z,6.00
2018-01-15T15:27:16.426Z,5.90
2018-01-15T15:29:44.709Z,5.80
2018-01-15T15:32:13.006Z,5.70
2018-01-15T15:34:40.497Z,5.70
2018-01-15T15:37:08.007Z,5.70
2018-01-15T15:39:36.304Z,5.70
2018-01-15T15:42:03.786Z,5.70
2018-01-15T15:44:31.261Z,5.60
2018-01-15T15:46:58.798Z,5.50
2018-01-15T15:49:26.294Z,5.40
2018-01-15T15:51:53.790Z,5.20
2018-01-15T15:54:21.332Z,5.10
2018-01-15T15:56:48.813Z,5.00
2018-01-15T15:59:16.330Z,4.90
2018-01-15T16:01:43.821Z,4.80
2018-01-15T16:04:11.352Z,4.60
2018-01-15T16:06:38.885Z,4.60
2018-01-15T16:09:07.133Z,4.70
2018-01-15T16:11:34.625Z,4.70
2018-01-15T16:14:02.191Z,4.60
2018-01-15T16:16:29.690Z,4.60
2018-01-15T16:18:57.209Z,4.70
2018-01-15T16:21:25.502Z,4.90
2018-01-15T16:23:53.794Z,5.10
2018-01-15T16:26:22.041Z,5.20
2018-01-15T16:28:49.586Z,5.20
2018-01-15T16:31:17.068Z,5.30
2018-01-15T16:33:44.581Z,5.40
2018-01-15T16:36:12.098Z,5.50
2018-01-15T16:38:39.619Z,5.70
2018-01-15T16:41:07.146Z,5.80
2018-01-15T16:43:35.391Z,6.00
2018-01-15T16:46:02.911Z,6.00
2018-01-15T16:48:30.392Z,6.20
2018-01-15T16:50:57.920Z,6.30
2018-01-15T16:53:26.173Z,6.50
2018-01-15T16:55:53.685Z,6.50
2018-01-15T16:58:21.365Z,6.60
2018-01-15T17:00:48.734Z,6.70
2018-01-15T17:03:16.212Z,6.70
2018-01-15T17:05:43.742Z,6.80
2018-01-15T17:08:11.268Z,6.80
2018-01-15T17:10:39.529Z,6.90
2018-01-15T17:13:07.053Z,6.80
2018-01-15T17:15:34.549Z,6.90
2018-01-15T17:18:02.069Z,6.90
2018-01-15T17:20:29.555Z,6.90
2018-01-15T17:22:57.061Z,7.00
2018-01-15T17:25:25.359Z,7.00
2018-01-15T17:27:53.658Z,6.90
2018-01-15T17:30:21.176Z,6.90
2018-01-15T17:32:48.665Z,7.00
2018-01-15T17:35:16.959Z,6.90
2018-01-15T17:37:44.565Z,6.90
2018-01-15T17:40:12.058Z,7.00
2018-01-15T17:42:39.529Z,6.80
2018-01-15T17:45:07.824Z,6.80
2018-01-15T17:47:35.305Z,6.70
2018-01-15T17:50:02.846Z,6.90
2018-01-15T17:52:31.131Z,6.90
2018-01-15T17:54:58.613Z,6.90
2018-01-15T17:57:26.129Z,6.90
2018-01-15T17:59:53.615Z,6.90
2018-01-15T18:02:21.994Z,7.00
2018-01-15T18:04:50.243Z,6.90
2018-01-15T18:07:17.734Z,6.90
2018-01-15T18:09:46.018Z,7.00
2018-01-15T18:12:14.270Z,7.00
2018-01-15T18:14:41.796Z,7.00
2018-01-15T18:17:09.281Z,6.90
2018-01-15T18:19:36.790Z,7.00
2018-01-15T18:22:05.102Z,7.00
2018-01-15T18:24:33.375Z,7.00
2018-01-15T18:27:00.849Z,7.00
2018-01-15T18:29:28.340Z,7.00
2018-01-15T18:31:55.888Z,7.00
2018-01-15T18:34:23.390Z,7.10
2018-01-15T18:36:50.879Z,7.10
2018-01-15T18:39:18.406Z,7.10
2018-01-15T18:41:45.889Z,7.10
2018-01-15T18:44:14.155Z,7.00
2018-01-15T18:46:41.685Z,7.00
2018-01-15T18:49:09.202Z,7.00
2018-01-15T18:51:37.490Z,7.10
2018-01-15T18:54:05.003Z,7.10
2018-01-15T18:56:32.506Z,7.10
2018-01-15T18:59:00.785Z,7.00
2018-01-15T19:01:29.043Z,7.00
2018-01-15T19:03:56.572Z,7.10
2018-01-15T19:06:24.056Z,7.10
2018-01-15T19:08:51.563Z,7.00
2018-01-15T19:11:19.041Z,7.00
2018-01-15T19:13:46.568Z,7.10
2018-01-15T19:16:14.085Z,7.00
2018-01-15T19:18:41.606Z,7.10
2018-01-15T19:21:09.878Z,7.20
2018-01-15T19:23:37.398Z,7.20
2018-01-15T19:26:04.882Z,7.20
2018-01-15T19:28:32.362Z,7.20
2018-01-15T19:30:59.874Z,7.00
2018-01-15T19:33:27.346Z,7.00
2018-01-15T19:39:00.388Z,6.80
2018-01-15T19:41:28.682Z,6.80
2018-01-15T19:44:03.477Z,6.70
2018-01-15T19:46:36.558Z,6.70
2018-01-15T19:49:09.662Z,6.60
2018-01-15T19:51:42.869Z,6.60
2018-01-15T19:54:16.578Z,6.40
2018-01-15T19:56:49.812Z,6.40
2018-01-15T19:59:23.195Z,6.40
2018-01-15T20:01:56.673Z,6.30
2018-01-15T20:04:29.859Z,6.30
2018-01-15T20:07:04.070Z,6.20
2018-01-15T20:09:38.204Z,6.30
2018-01-15T20:12:06.470Z,6.20
2018-01-15T20:14:34.008Z,6.20
2018-01-15T20:17:01.523Z,6.30
2018-01-15T20:19:29.062Z,6.30
2018-01-15T20:21:56.570Z,6.20
2018-01-15T20:24:24.078Z,6.30
2018-01-15T20:26:51.630Z,6.20
2018-01-15T20:29:19.154Z,6.30
2018-01-15T20:31:46.684Z,6.40
2018-01-15T20:34:14.949Z,6.30
2018-01-15T20:36:42.437Z,6.30
2018-01-15T20:39:10.784Z,6.20
2018-01-15T20:41:38.258Z,6.20
2018-01-15T20:44:05.785Z,6.20
2018-01-15T20:46:33.324Z,6.10
2018-01-15T20:49:00.811Z,6.10
2018-01-15T20:51:28.332Z,6.00
2018-01-15T20:53:56.602Z,6.00
2018-01-15T20:56:24.134Z,6.00
2018-01-15T20:58:51.623Z,6.00
2018-01-15T21:01:19.146Z,6.00
2018-01-15T21:03:46.647Z,5.90
2018-01-15T21:06:14.206Z,5.90
2018-01-15T21:08:41.729Z,6.00
2018-01-15T21:11:09.205Z,5.90
2018-01-15T21:13:36.721Z,5.90
2018-01-15T21:16:04.973Z,5.90
2018-01-15T21:18:32.459Z,5.90
2018-01-15T21:21:00.734Z,6.10
2018-01-15T21:23:29.018Z,6.10
2018-01-15T21:25:57.307Z,6.10
2018-01-15T21:28:25.599Z,6.10
2018-01-15T21:30:53.129Z,6.00
2018-01-15T21:33:20.619Z,6.10
2018-01-15T21:35:48.948Z,6.00
2018-01-15T21:38:16.441Z,5.90
2018-01-15T21:40:43.965Z,5.90
2018-01-15T21:43:11.454Z,5.90
2018-01-15T21:45:38.973Z,5.90
2018-01-15T21:48:06.460Z,5.80
2018-01-15T21:50:33.956Z,5.90
2018-01-15T21:53:01.596Z,5.80
2018-01-15T21:55:29.086Z,5.80
2018-01-15T21:57:56.575Z,5.80
2018-01-15T22:00:24.099Z,5.70
2018-01-15T22:02:51.626Z,5.70
2018-01-15T22:05:19.106Z,5.80
2018-01-15T22:07:46.681Z,5.80
2018-01-15T22:10:14.214Z,5.80
2018-01-15T22:12:41.706Z,5.90
2018-01-15T22:17:52.646Z,5.90
2018-01-15T22:20:20.135Z,5.90
2018-01-15T22:22:47.661Z,5.90
2018-01-15T22:25:15.181Z,5.90
2018-01-15T22:27:42.719Z,5.90
2018-01-15T22:30:10.206Z,6.00
2018-01-15T22:32:37.755Z,6.00
2018-01-15T22:35:05.252Z,6.00
2018-01-15T22:37:33.520Z,6.00
2018-01-15T22:40:01.048Z,6.00
2018-01-15T22:42:28.535Z,6.00
2018-01-15T22:44:56.807Z,6.20
2018-01-15T22:47:24.344Z,6.10
2018-01-15T22:49:51.845Z,6.20
2018-01-15T22:52:19.334Z,6.20
2018-01-15T22:54:47.626Z,6.20
2018-01-15T22:57:15.132Z,6.20
2018-01-15T22:59:42.834Z,6.20
2018-01-15T23:02:11.113Z,6.20
2018-01-15T23:04:39.375Z,6.30
2018-01-15T23:07:06.890Z,6.30
2018-01-15T23:09:34.394Z,6.40
2018-01-15T23:12:02.029Z,6.30
2018-01-15T23:14:29.532Z,6.40
2018-01-15T23:16:57.036Z,6.50
2018-01-15T23:19:24.551Z,6.40
2018-01-15T23:21:52.065Z,6.30
2018-01-15T23:24:19.568Z,6.30
2018-01-15T23:26:47.093Z,6.30
2018-01-15T23:29:15.371Z,6.30
2018-01-15T23:31:42.851Z,6.20
2018-01-15T23:34:10.333Z,6.20
2018-01-15T23:36:37.889Z,6.10
2018-01-15T23:39:05.413Z,6.10
2018-01-15T23:41:33.694Z,6.10
2018-01-15T23:44:01.990Z,6.10
2018-01-15T23:46:29.481Z,6.00
2018-01-15T23:48:57.019Z,6.10
2018-01-15T23:51:24.509Z,6.10
2018-01-15T23:53:52.021Z,6.10
2018-01-15T23:56:20.281Z,6.20
2018-01-15T23:58:47.818Z,6.10
